Time;durP1;ratioP1;P1;durP2;ratioP2;P2;SDS_P1;SDS_P2;PMS_P1;PMS_P2;Temp;Humidity;BMP_temperature;BMP_pressure;BME280_temperature;BME280_humidity;BME280_pressure;Samples;Min_cycle;Max_cycle;Signal;HPM_P1;HPM_P2
2023/11/19 00:02:36;;;;;;;7.50;2.75;;;;;;;;;;5067211;28;20056;-63
2023/11/19 00:05:05;;;;;;;11.00;2.65;;;;;;;;;;5089388;28;20055;-65
2023/11/19 00:07:32;;;;;;;9.20;2.80;;;;;;;;;;5084617;28;20125;-68
2023/11/19 00:10:03;;;;;;;6.28;2.13;;;;;;;;;;5090851;28;20056;-65
2023/11/19 00:12:34;;;;;;;13.10;2.60;;;;;;;;;;5087874;28;20055;-66
2023/11/19 00:15:04;;;;;;;12.40;2.42;;;;;;;;;;5053626;28;20201;-65
2023/11/19 00:17:31;;;;;;;9.07;1.90;;;;;;;;;;5067518;28;20149;-65
2023/11/19 00:19:58;;;;;;;9.02;2.30;;;;;;;;;;5077516;28;20052;-65
2023/11/19 00:22:25;;;;;;;9.73;2.30;;;;;;;;;;5070152;28;20397;-65
2023/11/19 00:24:52;;;;;;;8.13;2.08;;;;;;;;;;5066920;28;20150;-66
2023/11/19 00:27:19;;;;;;;5.43;1.70;;;;;;;;;;5073764;28;20052;-65
2023/11/19 00:29:51;;;;;;;5.68;1.85;;;;;;;;;;5063205;28;20227;-67
2023/11/19 00:32:18;;;;;;;11.27;2.28;;;;;;;;;;5059908;28;20102;-66
2023/11/19 00:34:45;;;;;;;10.52;2.38;;;;;;;;;;5067328;28;20066;-63
2023/11/19 00:37:12;;;;;;;6.20;1.65;;;;;;;;;;5055214;28;20090;-63
2023/11/19 00:39:38;;;;;;;8.13;1.70;;;;;;;;;;5056815;28;20075;-61
2023/11/19 00:42:06;;;;;;;8.05;2.78;;;;;;;;;;5057824;28;20072;-69
2023/11/19 00:44:32;;;;;;;13.82;3.75;;;;;;;;;;5070602;28;20048;-66
2023/11/19 00:47:00;;;;;;;7.32;2.15;;;;;;;;;;5075989;28;20105;-63
2023/11/19 00:49:27;;;;;;;9.73;2.78;;;;;;;;;;5077779;28;20075;-62
2023/11/19 00:51:54;;;;;;;6.97;1.83;;;;;;;;;;5060310;28;20056;-62
2023/11/19 00:54:20;;;;;;;11.90;2.20;;;;;;;;;;5057859;28;20048;-64
2023/11/19 00:56:47;;;;;;;11.48;1.98;;;;;;;;;;5059753;28;20062;-63
2023/11/19 00:59:14;;;;;;;15.35;2.00;;;;;;;;;;5056982;28;20056;-60
2023/11/19 01:01:41;;;;;;;11.48;2.45;;;;;;;;;;5075269;28;20054;-62
2023/11/19 01:04:09;;;;;;;10.65;2.08;;;;;;;;;;5073378;28;20382;-62
2023/11/19 01:06:36;;;;;;;10.15;2.03;;;;;;;;;;5066751;28;20537;-62
2023/11/19 01:09:03;;;;;;;11.70;1.92;;;;;;;;;;5056538;28;20084;-62
2023/11/19 01:11:29;;;;;;;11.40;2.30;;;;;;;;;;5069233;28;20048;-64
2023/11/19 01:13:56;;;;;;;21.27;2.42;;;;;;;;;;5076883;28;20124;-65
2023/11/19 01:16:23;;;;;;;10.30;2.08;;;;;;;;;;5055053;28;20457;-65
2023/11/19 01:18:49;;;;;;;6.00;1.65;;;;;;;;;;5077135;28;20113;-63
2023/11/19 01:21:18;;;;;;;13.90;2.33;;;;;;;;;;5077290;28;20143;-62
2023/11/19 01:23:45;;;;;;;15.63;2.13;;;;;;;;;;5077663;28;20055;-64
2023/11/19 01:26:12;;;;;;;12.00;2.13;;;;;;;;;;5068843;28;20056;-66
2023/11/19 01:28:44;;;;;;;9.52;2.15;;;;;;;;;;5078235;28;20063;-65
2023/11/19 01:31:12;;;;;;;12.55;2.10;;;;;;;;;;5078867;28;20086;-64
2023/11/19 01:33:39;;;;;;;13.07;1.67;;;;;;;;;;5080057;28;20075;-63
2023/11/19 01:36:07;;;;;;;12.60;2.33;;;;;;;;;;5074278;28;20044;-65
2023/11/19 01:38:37;;;;;;;15.25;2.20;;;;;;;;;;5067885;28;20052;-65
2023/11/19 01:41:03;;;;;;;8.77;1.92;;;;;;;;;;5077237;28;20123;-63
2023/11/19 01:43:34;;;;;;;11.65;1.55;;;;;;;;;;5070906;28;20144;-67
2023/11/19 01:46:01;;;;;;;12.38;1.77;;;;;;;;;;5065953;28;20056;-65
2023/11/19 01:48:28;;;;;;;10.20;2.33;;;;;;;;;;5069381;28;20052;-65
2023/11/19 01:50:56;;;;;;;15.95;1.85;;;;;;;;;;5072328;28;20186;-62
2023/11/19 01:53:23;;;;;;;10.73;2.20;;;;;;;;;;5071878;28;20056;-66
2023/11/19 01:55:52;;;;;;;3.58;1.02;;;;;;;;;;5066641;28;20317;-63
2023/11/19 01:58:19;;;;;;;14.07;2.08;;;;;;;;;;5057113;28;20063;-64
2023/11/19 02:00:46;;;;;;;11.80;1.85;;;;;;;;;;5073277;28;20059;-64
2023/11/19 02:03:13;;;;;;;10.52;1.77;;;;;;;;;;5056518;28;20095;-64
2023/11/19 02:05:40;;;;;;;14.98;1.75;;;;;;;;;;5076957;28;20052;-64
2023/11/19 02:08:07;;;;;;;11.93;2.97;;;;;;;;;;5057053;28;20182;-64
2023/11/19 02:10:34;;;;;;;22.40;2.80;;;;;;;;;;5052785;28;20068;-66
2023/11/19 02:13:05;;;;;;;15.73;1.92;;;;;;;;;;5069066;28;20079;-66
2023/11/19 02:15:32;;;;;;;21.48;2.42;;;;;;;;;;5072528;28;20059;-65
2023/11/19 02:17:58;;;;;;;16.38;2.10;;;;;;;;;;5055019;28;20079;-63
2023/11/19 02:20:26;;;;;;;17.23;2.50;;;;;;;;;;5057524;28;20055;-65
2023/11/19 02:22:52;;;;;;;19.35;2.45;;;;;;;;;;5075424;28;20060;-61
2023/11/19 02:25:26;;;;;;;16.52;2.10;;;;;;;;;;5066562;28;20052;-65
2023/11/19 02:27:58;;;;;;;19.70;2.03;;;;;;;;;;5055096;28;20048;-66
2023/11/19 02:35:49;;;;;;;23.30;2.05;;;;;;;;;;4975363;28;20055;-63
2023/11/19 02:38:16;;;;;;;15.52;2.20;;;;;;;;;;4958367;28;20112;-64
2023/11/19 02:40:43;;;;;;;14.55;1.88;;;;;;;;;;4963858;28;20205;-64
2023/11/19 02:43:11;;;;;;;23.42;2.20;;;;;;;;;;4980158;28;20090;-64
2023/11/19 02:45:37;;;;;;;25.20;2.47;;;;;;;;;;4955598;28;20050;-63
2023/11/19 02:48:06;;;;;;;14.20;1.90;;;;;;;;;;4960304;28;20082;-66
2023/11/19 02:50:33;;;;;;;20.45;2.70;;;;;;;;;;4956449;28;20054;-62
2023/11/19 02:53:01;;;;;;;14.15;2.30;;;;;;;;;;4977365;28;20065;-63
2023/11/19 02:55:30;;;;;;;23.30;2.60;;;;;;;;;;4939159;28;20081;-66
2023/11/19 02:57:59;;;;;;;19.63;2.33;;;;;;;;;;4960708;28;20053;-63
2023/11/19 03:00:35;;;;;;;22.75;2.00;;;;;;;;;;4951501;28;20150;-66
2023/11/19 03:03:10;;;;;;;24.95;2.10;;;;;;;;;;4986233;28;20134;-65
2023/11/19 03:05:36;;;;;;;9.95;2.17;;;;;;;;;;4941338;28;20081;-65
2023/11/19 03:08:03;;;;;;;25.15;2.67;;;;;;;;;;4958142;28;20144;-63
2023/11/19 03:10:30;;;;;;;26.83;2.28;;;;;;;;;;4966998;28;20050;-65
2023/11/19 03:12:57;;;;;;;24.65;2.92;;;;;;;;;;4963631;28;20082;-65
2023/11/19 03:15:23;;;;;;;18.77;1.98;;;;;;;;;;4957859;28;20142;-63
2023/11/19 03:17:52;;;;;;;12.93;1.65;;;;;;;;;;4960396;28;20057;-67
2023/11/19 03:20:20;;;;;;;23.48;2.55;;;;;;;;;;4963028;28;20112;-62
2023/11/19 03:22:47;;;;;;;21.30;1.85;;;;;;;;;;4984465;28;20054;-65
2023/11/19 03:25:14;;;;;;;19.30;2.50;;;;;;;;;;4938593;28;20082;-62
2023/11/19 03:27:41;;;;;;;18.65;2.25;;;;;;;;;;4961137;28;20087;-63
2023/11/19 03:30:09;;;;;;;26.70;2.63;;;;;;;;;;4959709;28;20072;-62
2023/11/19 03:32:36;;;;;;;14.23;1.90;;;;;;;;;;4962899;28;20141;-64
2023/11/19 03:35:07;;;;;;;29.90;3.00;;;;;;;;;;4925768;28;20143;-61
2023/11/19 03:37:34;;;;;;;20.25;2.13;;;;;;;;;;4958730;28;20047;-63
2023/11/19 03:40:01;;;;;;;22.00;2.78;;;;;;;;;;4959291;28;20124;-61
2023/11/19 03:42:27;;;;;;;22.80;2.70;;;;;;;;;;4964326;28;20051;-63
2023/11/19 03:44:54;;;;;;;26.73;3.25;;;;;;;;;;4960031;28;20042;-64
2023/11/19 03:47:21;;;;;;;19.50;3.08;;;;;;;;;;4961945;28;20150;-67
2023/11/19 03:49:49;;;;;;;12.60;2.15;;;;;;;;;;4981489;28;20146;-61
2023/11/19 03:52:18;;;;;;;20.52;2.78;;;;;;;;;;4975928;28;20057;-66
2023/11/19 03:54:46;;;;;;;18.42;2.10;;;;;;;;;;4962233;28;20050;-68
2023/11/19 03:57:15;;;;;;;18.45;2.83;;;;;;;;;;4973013;28;20050;-65
2023/11/19 03:59:42;;;;;;;26.45;3.53;;;;;;;;;;4984813;28;20124;-65
2023/11/19 04:02:08;;;;;;;16.05;2.53;;;;;;;;;;4980913;28;20066;-64
2023/11/19 04:04:35;;;;;;;20.60;2.13;;;;;;;;;;4968374;28;20050;-63
2023/11/19 04:07:03;;;;;;;17.00;2.03;;;;;;;;;;4986159;28;20069;-66
2023/11/19 04:09:32;;;;;;;25.08;3.00;;;;;;;;;;4985427;28;20058;-62
2023/11/19 04:12:00;;;;;;;18.70;2.42;;;;;;;;;;4965292;28;20088;-63
2023/11/19 04:14:30;;;;;;;16.83;3.45;;;;;;;;;;4963267;28;20062;-65
2023/11/19 04:16:56;;;;;;;16.77;2.97;;;;;;;;;;4985992;28;20089;-66
2023/11/19 04:19:23;;;;;;;23.58;3.53;;;;;;;;;;4985466;28;20073;-64
2023/11/19 04:21:51;;;;;;;25.75;4.32;;;;;;;;;;4978663;28;20077;-66
2023/11/19 04:24:18;;;;;;;17.15;2.60;;;;;;;;;;4959662;28;20058;-64
2023/11/19 04:26:46;;;;;;;16.30;2.92;;;;;;;;;;4951829;28;20128;-63
2023/11/19 04:29:13;;;;;;;;;;;;;;;;;;4986190;28;20141;-60
2023/11/19 04:31:40;;;;;;;24.60;3.00;;;;;;;;;;4970180;28;19933;-63
2023/11/19 04:34:07;;;;;;;27.38;2.83;;;;;;;;;;4947224;28;20105;-64
2023/11/19 04:36:34;;;;;;;27.85;3.00;;;;;;;;;;4965743;28;20126;-64
2023/11/19 04:39:01;;;;;;;29.98;3.25;;;;;;;;;;4965903;28;20105;-62
2023/11/19 04:41:28;;;;;;;21.77;2.65;;;;;;;;;;4964109;28;20090;-61
2023/11/19 04:43:57;;;;;;;17.35;2.47;;;;;;;;;;4942206;28;20138;-65
2023/11/19 04:46:24;;;;;;;24.52;2.92;;;;;;;;;;4962506;28;20066;-63
2023/11/19 04:48:53;;;;;;;26.77;3.75;;;;;;;;;;4965178;28;20058;-65
2023/11/19 04:51:19;;;;;;;22.17;2.63;;;;;;;;;;4966604;28;20089;-64
2023/11/19 04:53:46;;;;;;;16.90;2.20;;;;;;;;;;4952502;28;20085;-63
2023/11/19 04:56:13;;;;;;;22.38;2.42;;;;;;;;;;4976544;28;20065;-66
2023/11/19 04:58:40;;;;;;;27.48;2.75;;;;;;;;;;4965505;28;20137;-63
2023/11/19 05:01:15;;;;;;;21.88;2.63;;;;;;;;;;4964662;28;20055;-62
2023/11/19 05:03:42;;;;;;;15.23;2.28;;;;;;;;;;4957496;28;20063;-63
2023/11/19 05:06:09;;;;;;;30.05;3.45;;;;;;;;;;4956663;28;20121;-65
2023/11/19 05:08:37;;;;;;;23.02;2.38;;;;;;;;;;4960021;28;20055;-64
2023/11/19 05:11:05;;;;;;;25.70;2.53;;;;;;;;;;4958980;28;20181;-65
2023/11/19 05:13:32;;;;;;;26.75;1.98;;;;;;;;;;4955428;28;20227;-63
2023/11/19 05:15:59;;;;;;;18.67;2.30;;;;;;;;;;4932898;28;20066;-64
2023/11/19 05:18:27;;;;;;;22.55;2.85;;;;;;;;;;4959767;28;20125;-65
2023/11/19 05:20:53;;;;;;;20.95;2.65;;;;;;;;;;4961488;28;20074;-64
2023/11/19 05:23:21;;;;;;;17.33;2.03;;;;;;;;;;4959793;28;20090;-63
2023/11/19 05:25:48;;;;;;;23.75;3.20;;;;;;;;;;4928377;28;20118;-59
2023/11/19 05:28:15;;;;;;;29.50;2.85;;;;;;;;;;4956329;28;20054;-64
2023/11/19 05:30:42;;;;;;;32.83;3.30;;;;;;;;;;4961217;28;20066;-66
2023/11/19 05:33:09;;;;;;;27.27;3.05;;;;;;;;;;4960034;28;20086;-63
2023/11/19 05:35:37;;;;;;;26.58;2.72;;;;;;;;;;4970246;28;20058;-66
2023/11/19 05:38:03;;;;;;;29.17;2.58;;;;;;;;;;4975126;28;20071;-64
2023/11/19 05:40:30;;;;;;;39.85;3.63;;;;;;;;;;4980870;28;20054;-65
2023/11/19 05:42:57;;;;;;;18.35;3.60;;;;;;;;;;4961716;28;20149;-63
2023/11/19 05:45:23;;;;;;;24.65;2.63;;;;;;;;;;4958538;28;20150;-63
2023/11/19 05:47:51;;;;;;;23.92;2.88;;;;;;;;;;4964419;28;20066;-62
2023/11/19 05:50:18;;;;;;;24.80;3.20;;;;;;;;;;4958840;28;20054;-64
2023/11/19 05:52:47;;;;;;;24.88;3.17;;;;;;;;;;4978816;28;20082;-63
2023/11/19 05:55:14;;;;;;;18.40;2.38;;;;;;;;;;4954411;28;20053;-63
2023/11/19 05:57:40;;;;;;;16.83;3.42;;;;;;;;;;4973711;28;20058;-66
2023/11/19 06:00:10;;;;;;;27.65;2.38;;;;;;;;;;4956125;28;20161;-63
2023/11/19 06:02:38;;;;;;;27.23;2.60;;;;;;;;;;4980044;28;20061;-63
2023/11/19 06:05:06;;;;;;;21.10;3.05;;;;;;;;;;4956154;28;20078;-64
2023/11/19 06:07:33;;;;;;;;;;;;;;;;;;4963400;28;20038;-61
2023/11/19 06:10:02;;;;;;;27.50;2.45;;;;;;;;;;4958339;28;19925;-62
2023/11/19 06:12:30;;;;;;;23.63;2.72;;;;;;;;;;4980427;28;20062;-67
2023/11/19 06:14:57;;;;;;;19.75;2.25;;;;;;;;;;4956693;28;20113;-64
2023/11/19 06:17:23;;;;;;;23.65;2.45;;;;;;;;;;4962347;28;20125;-62
2023/11/19 06:19:50;;;;;;;21.58;2.60;;;;;;;;;;4963207;28;20054;-65
2023/11/19 06:22:17;;;;;;;35.85;3.35;;;;;;;;;;4958834;28;20128;-64
2023/11/19 06:24:44;;;;;;;33.25;2.97;;;;;;;;;;4967093;28;20190;-65
2023/11/19 06:27:12;;;;;;;26.90;2.80;;;;;;;;;;4962964;28;20058;-64
2023/11/19 06:29:40;;;;;;;;;;;;;;;;;;4963362;28;20065;-62
2023/11/19 06:32:07;;;;;;;18.50;2.70;;;;;;;;;;4976102;28;19937;-62
2023/11/19 06:34:34;;;;;;;21.33;2.20;;;;;;;;;;4954842;28;20050;-66
2023/11/19 06:37:03;;;;;;;19.25;2.80;;;;;;;;;;4961667;28;20054;-65
2023/11/19 06:39:29;;;;;;;32.70;3.28;;;;;;;;;;4957149;28;20171;-65
2023/11/19 06:41:57;;;;;;;26.58;2.65;;;;;;;;;;4957896;28;20082;-64
2023/11/19 06:44:25;;;;;;;28.77;2.80;;;;;;;;;;4947410;28;20050;-68
2023/11/19 06:46:52;;;;;;;39.05;3.65;;;;;;;;;;4959408;28;20058;-62
2023/11/19 06:49:18;;;;;;;19.05;2.63;;;;;;;;;;4958166;28;20063;-62
2023/11/19 06:51:46;;;;;;;21.67;2.75;;;;;;;;;;4959495;28;20082;-65
2023/11/19 06:54:12;;;;;;;23.00;3.20;;;;;;;;;;4933605;28;20661;-61
2023/11/19 06:56:41;;;;;;;25.88;4.47;;;;;;;;;;4969571;28;20118;-62
2023/11/19 06:59:08;;;;;;;;;;;;;;;;;;4960540;28;20070;-63
2023/11/19 07:01:38;;;;;;;20.30;2.75;;;;;;;;;;4960128;28;19988;-65
2023/11/19 07:04:09;;;;;;;27.70;3.35;;;;;;;;;;4885730;28;20190;-67
2023/11/19 07:06:36;;;;;;;33.13;3.80;;;;;;;;;;4962128;28;20058;-66
2023/11/19 07:09:09;;;;;;;23.33;3.13;;;;;;;;;;4953170;28;20122;-69
2023/11/19 07:11:36;;;;;;;21.08;3.00;;;;;;;;;;4955166;28;20054;-65
2023/11/19 07:14:04;;;;;;;27.48;3.28;;;;;;;;;;4949200;28;20059;-65
2023/11/19 07:16:30;;;;;;;19.50;2.90;;;;;;;;;;4957271;28;20051;-66
2023/11/19 07:18:59;;;;;;;29.33;3.10;;;;;;;;;;4953916;28;20150;-64
2023/11/19 07:21:27;;;;;;;;;;;;;;;;;;4957306;28;20119;-65
2023/11/19 07:23:54;;;;;;;24.92;2.95;;;;;;;;;;4935195;28;19929;-67
2023/11/19 07:26:21;;;;;;;16.30;2.95;;;;;;;;;;4928246;28;20067;-62
2023/11/19 07:28:48;;;;;;;23.63;3.67;;;;;;;;;;4962726;28;20050;-64
2023/11/19 07:31:19;;;;;;;32.15;3.58;;;;;;;;;;4959832;28;20055;-63
2023/11/19 07:33:45;;;;;;;39.30;3.22;;;;;;;;;;4957884;28;20047;-64
2023/11/19 07:36:14;;;;;;;30.05;3.00;;;;;;;;;;4942764;28;20112;-64
2023/11/19 07:38:42;;;;;;;25.73;2.53;;;;;;;;;;4982244;28;20062;-64
2023/11/19 07:41:12;;;;;;;21.05;3.20;;;;;;;;;;4964939;28;20053;-66
2023/11/19 07:43:41;;;;;;;15.35;2.47;;;;;;;;;;4943243;28;20085;-64
2023/11/19 07:46:12;;;;;;;;;;;;;;;;;;4960048;28;20066;-64
2023/11/19 07:48:39;;;;;;;19.17;3.03;;;;;;;;;;4963107;28;19936;-61
2023/11/19 07:51:06;;;;;;;30.55;3.67;;;;;;;;;;4982106;28;20051;-67
2023/11/19 07:53:38;;;;;;;13.95;2.15;;;;;;;;;;4960699;28;20046;-62
2023/11/19 07:56:05;;;;;;;17.98;2.85;;;;;;;;;;4970831;28;20150;-66
2023/11/19 07:58:32;;;;;;;24.10;2.35;;;;;;;;;;4980533;28;20134;-63
2023/11/19 08:00:59;;;;;;;34.03;3.03;;;;;;;;;;4961926;28;20050;-63
2023/11/19 08:03:26;;;;;;;26.05;2.72;;;;;;;;;;4962206;28;20058;-64
2023/11/19 08:05:58;;;;;;;21.33;3.03;;;;;;;;;;4929472;28;20063;-64
2023/11/19 08:08:25;;;;;;;12.57;2.03;;;;;;;;;;4961970;28;20066;-65
2023/11/19 08:10:55;;;;;;;20.23;2.58;;;;;;;;;;4963854;28;20059;-65
2023/11/19 08:13:22;;;;;;;21.00;2.95;;;;;;;;;;4960709;28;20058;-63
2023/11/19 08:15:49;;;;;;;20.10;2.42;;;;;;;;;;4889877;28;20042;-68
2023/11/19 08:18:19;;;;;;;22.08;2.60;;;;;;;;;;4974039;28;20046;-60
2023/11/19 08:20:49;;;;;;;16.20;2.75;;;;;;;;;;4958840;28;20153;-63
2023/11/19 08:23:16;;;;;;;17.83;2.05;;;;;;;;;;4964233;28;20141;-64
2023/11/19 08:25:45;;;;;;;26.08;3.75;;;;;;;;;;4943787;28;20054;-62
2023/11/19 08:28:14;;;;;;;15.20;1.85;;;;;;;;;;4958523;28;20050;-60
2023/11/19 08:30:40;;;;;;;26.30;2.33;;;;;;;;;;4963600;28;20050;-67
2023/11/19 08:33:09;;;;;;;22.48;2.53;;;;;;;;;;4964015;28;20142;-62
2023/11/19 08:35:36;;;;;;;22.58;2.63;;;;;;;;;;4955496;28;20105;-61
2023/11/19 08:38:02;;;;;;;15.70;2.40;;;;;;;;;;4955498;28;20062;-61
2023/11/19 08:40:30;;;;;;;19.67;1.65;;;;;;;;;;4957503;28;20054;-61
2023/11/19 08:42:57;;;;;;;19.88;2.05;;;;;;;;;;4959655;28;20055;-60
2023/11/19 08:45:25;;;;;;;12.32;2.00;;;;;;;;;;4938053;28;20086;-62
2023/11/19 08:47:58;;;;;;;22.20;2.47;;;;;;;;;;4959655;28;20071;-67
2023/11/19 08:50:25;;;;;;;26.30;2.17;;;;;;;;;;4959310;28;20050;-66
2023/11/19 08:52:51;;;;;;;26.52;2.95;;;;;;;;;;4958949;28;20047;-62
2023/11/19 08:55:18;;;;;;;29.77;2.58;;;;;;;;;;4915515;28;20226;-66
2023/11/19 08:57:46;;;;;;;24.73;5.35;;;;;;;;;;4951182;28;20065;-65
2023/11/19 09:00:14;;;;;;;15.65;3.55;;;;;;;;;;4956376;28;20092;-61
2023/11/19 09:02:45;;;;;;;23.67;3.15;;;;;;;;;;4963150;28;20143;-61
2023/11/19 09:05:13;;;;;;;14.20;1.92;;;;;;;;;;4955443;28;20063;-69
2023/11/19 09:07:43;;;;;;;20.77;2.75;;;;;;;;;;4960330;28;20050;-64
2023/11/19 09:10:14;;;;;;;24.65;2.92;;;;;;;;;;4954957;28;20051;-66
2023/11/19 09:12:41;;;;;;;29.02;2.88;;;;;;;;;;4973127;28;20059;-62
2023/11/19 09:15:11;;;;;;;20.15;3.08;;;;;;;;;;4946178;28;20067;-60
2023/11/19 09:17:37;;;;;;;17.75;2.40;;;;;;;;;;4961333;28;20243;-64
2023/11/19 09:20:11;;;;;;;20.30;2.60;;;;;;;;;;4956699;28;20050;-60
2023/11/19 09:22:38;;;;;;;27.70;2.67;;;;;;;;;;4962196;28;20069;-66
2023/11/19 09:25:11;;;;;;;14.35;2.13;;;;;;;;;;4947182;28;20065;-60
2023/11/19 09:27:38;;;;;;;40.60;3.65;;;;;;;;;;4962094;28;20213;-62
2023/11/19 09:30:12;;;;;;;25.85;2.88;;;;;;;;;;4952416;28;20174;-66
2023/11/19 09:32:40;;;;;;;12.43;2.33;;;;;;;;;;4963959;28;20058;-62
2023/11/19 09:35:13;;;;;;;31.70;2.25;;;;;;;;;;4956821;28;20057;-68
2023/11/19 09:37:39;;;;;;;24.02;2.42;;;;;;;;;;4965980;28;20054;-66
2023/11/19 09:40:09;;;;;;;20.88;2.63;;;;;;;;;;4979586;28;20058;-64
2023/11/19 09:42:45;;;;;;;15.90;2.13;;;;;;;;;;4962914;28;20165;-62
2023/11/19 09:45:18;;;;;;;32.60;2.90;;;;;;;;;;4935989;28;20061;-63
2023/11/19 09:47:46;;;;;;;19.67;2.60;;;;;;;;;;4963532;28;20065;-61
2023/11/19 09:50:20;;;;;;;19.67;2.25;;;;;;;;;;4957298;28;20124;-61
2023/11/19 09:52:47;;;;;;;25.10;2.70;;;;;;;;;;4981440;28;20066;-64
2023/11/19 09:55:15;;;;;;;21.27;2.58;;;;;;;;;;4951265;28;20062;-69
2023/11/19 09:57:53;;;;;;;37.42;4.05;;;;;;;;;;4976837;28;20058;-64
2023/11/19 10:00:22;;;;;;;26.30;3.30;;;;;;;;;;4972958;28;20073;-65
2023/11/19 10:02:50;;;;;;;25.38;3.25;;;;;;;;;;4963524;28;20136;-67
2023/11/19 10:05:21;;;;;;;25.67;3.08;;;;;;;;;;4973364;28;20089;-62
2023/11/19 10:07:50;;;;;;;36.05;3.35;;;;;;;;;;4961137;28;20050;-61
2023/11/19 10:10:19;;;;;;;16.10;2.83;;;;;;;;;;4973140;28;20058;-65
2023/11/19 10:12:49;;;;;;;18.65;2.00;;;;;;;;;;4966607;28;20054;-66
2023/11/19 10:15:21;;;;;;;12.05;1.88;;;;;;;;;;4944083;28;20066;-65
2023/11/19 10:17:48;;;;;;;24.38;2.80;;;;;;;;;;4953721;28;20066;-66
2023/11/19 10:20:14;;;;;;;26.50;2.65;;;;;;;;;;4957022;28;20042;-56
2023/11/19 10:22:42;;;;;;;23.17;2.60;;;;;;;;;;4977088;28;20058;-62
2023/11/19 10:25:23;;;;;;;16.48;2.05;;;;;;;;;;4937927;28;20050;-58
2023/11/19 10:27:53;;;;;;;22.02;2.78;;;;;;;;;;4973529;28;20062;-62
2023/11/19 10:30:26;;;;;;;18.05;2.55;;;;;;;;;;4956949;28;20209;-59
2023/11/19 10:33:06;;;;;;;18.38;2.85;;;;;;;;;;4965834;28;20053;-63
2023/11/19 10:35:34;;;;;;;18.13;2.63;;;;;;;;;;4933406;28;20073;-65
2023/11/19 10:38:14;;;;;;;24.65;2.42;;;;;;;;;;4961719;28;20086;-64
2023/11/19 10:40:41;;;;;;;25.58;2.20;;;;;;;;;;4961380;28;20160;-63
2023/11/19 10:43:08;;;;;;;15.55;2.03;;;;;;;;;;4952203;28;20149;-65
2023/11/19 10:45:36;;;;;;;19.80;2.78;;;;;;;;;;4945567;28;20053;-60
2023/11/19 10:48:06;;;;;;;30.70;3.28;;;;;;;;;;4968419;28;20059;-65
2023/11/19 10:50:34;;;;;;;24.50;3.08;;;;;;;;;;4958759;28;20058;-57
2023/11/19 10:53:03;;;;;;;28.48;2.78;;;;;;;;;;4961830;28;20118;-61
2023/11/19 10:55:38;;;;;;;14.00;2.13;;;;;;;;;;4936277;28;20140;-61
2023/11/19 10:58:05;;;;;;;12.70;2.50;;;;;;;;;;4954071;28;20058;-62
2023/11/19 11:00:38;;;;;;;23.73;2.65;;;;;;;;;;4960876;28;20062;-60
2023/11/19 11:03:12;;;;;;;30.58;3.28;;;;;;;;;;4955770;28;20046;-63
2023/11/19 11:05:39;;;;;;;13.65;1.60;;;;;;;;;;4950473;28;20062;-63
2023/11/19 11:08:11;;;;;;;18.50;2.27;;;;;;;;;;4953414;28;20125;-59
2023/11/19 11:10:43;;;;;;;20.40;2.60;;;;;;;;;;4955969;28;20177;-61
2023/11/19 11:13:13;;;;;;;23.02;2.78;;;;;;;;;;4958473;28;20118;-67
2023/11/19 11:15:42;;;;;;;19.52;2.83;;;;;;;;;;4918502;28;20061;-66
2023/11/19 11:18:10;;;;;;;24.10;3.08;;;;;;;;;;4936626;28;20113;-63
2023/11/19 11:20:38;;;;;;;23.87;2.77;;;;;;;;;;4960772;28;20055;-66
2023/11/19 11:23:38;;;;;;;11.02;2.20;;;;;;;;;;4974192;28;20054;-64
2023/11/19 11:26:35;;;;;;;19.73;2.50;;;;;;;;;;4931560;28;20051;-66
2023/11/19 11:29:05;;;;;;;21.90;2.40;;;;;;;;;;4952025;28;20257;-66
2023/11/19 11:31:40;;;;;;;19.10;2.97;;;;;;;;;;4970247;28;20128;-63
2023/11/19 11:34:20;;;;;;;31.30;2.83;;;;;;;;;;4950702;28;20285;-62
2023/11/19 11:36:56;;;;;;;17.85;2.28;;;;;;;;;;4958605;28;20114;-63
2023/11/19 11:39:25;;;;;;;16.30;2.17;;;;;;;;;;4973333;28;20059;-63
2023/11/19 11:42:25;;;;;;;18.20;2.75;;;;;;;;;;4975596;28;20061;-65
2023/11/19 11:45:04;;;;;;;20.23;2.30;;;;;;;;;;4955756;28;20046;-61
2023/11/19 11:48:17;;;;;;;30.83;3.60;;;;;;;;;;4962624;28;20068;-68
2023/11/19 11:50:58;;;;;;;18.10;2.95;;;;;;;;;;4944735;28;20154;-65
2023/11/19 11:53:26;;;;;;;19.30;1.98;;;;;;;;;;4979845;28;20062;-68
2023/11/19 11:56:02;;;;;;;18.80;2.67;;;;;;;;;;4947119;28;20124;-63
2023/11/19 11:58:33;;;;;;;17.58;2.13;;;;;;;;;;4957097;28;20065;-61
2023/11/19 12:01:05;;;;;;;11.63;2.92;;;;;;;;;;4978744;28;20054;-61
2023/11/19 12:03:33;;;;;;;33.97;3.53;;;;;;;;;;4976979;28;20065;-62
2023/11/19 12:06:00;;;;;;;21.10;2.95;;;;;;;;;;4942850;28;20058;-63
2023/11/19 12:08:29;;;;;;;16.48;2.53;;;;;;;;;;4973891;28;20090;-64
2023/11/19 12:10:59;;;;;;;16.70;2.45;;;;;;;;;;4968305;28;20060;-65
2023/11/19 12:13:44;;;;;;;11.75;1.85;;;;;;;;;;4979387;28;20057;-63
2023/11/19 12:16:12;;;;;;;12.40;2.28;;;;;;;;;;4949507;28;20058;-66
2023/11/19 12:18:44;;;;;;;20.38;2.10;;;;;;;;;;4946890;28;20085;-64
2023/11/19 12:21:10;;;;;;;17.10;2.25;;;;;;;;;;4973989;28;20082;-65
2023/11/19 12:23:45;;;;;;;12.77;1.58;;;;;;;;;;4968345;28;20062;-65
2023/11/19 12:26:37;;;;;;;29.42;3.05;;;;;;;;;;4932379;28;20066;-61
2023/11/19 12:29:05;;;;;;;20.90;2.58;;;;;;;;;;4977419;28;20148;-63
2023/11/19 12:31:35;;;;;;;21.10;2.55;;;;;;;;;;4963971;28;20046;-63
2023/11/19 12:34:06;;;;;;;18.25;2.40;;;;;;;;;;4957750;28;20062;-63
2023/11/19 12:36:35;;;;;;;23.40;2.83;;;;;;;;;;4967489;28;20058;-60
2023/11/19 12:39:02;;;;;;;11.75;2.17;;;;;;;;;;4970743;28;20053;-60
2023/11/19 12:41:29;;;;;;;12.25;2.08;;;;;;;;;;4966449;28;20149;-57
2023/11/19 12:44:10;;;;;;;16.17;2.28;;;;;;;;;;4965434;28;20042;-56
2023/11/19 12:46:37;;;;;;;17.67;2.22;;;;;;;;;;4959909;28;20065;-55
2023/11/19 12:49:05;;;;;;;15.18;1.70;;;;;;;;;;4967663;28;20046;-56
2023/11/19 12:51:33;;;;;;;18.52;2.53;;;;;;;;;;4962124;28;20065;-61
2023/11/19 12:54:00;;;;;;;11.48;1.88;;;;;;;;;;4974476;28;20141;-65
2023/11/19 12:56:26;;;;;;;9.88;1.92;;;;;;;;;;4984425;28;20128;-60
2023/11/19 12:58:53;;;;;;;18.02;2.38;;;;;;;;;;4962496;28;20070;-57
2023/11/19 13:01:22;;;;;;;27.90;2.22;;;;;;;;;;4984042;28;20058;-60
2023/11/19 13:03:51;;;;;;;13.55;2.75;;;;;;;;;;4966911;28;20064;-56
2023/11/19 13:06:20;;;;;;;12.10;2.15;;;;;;;;;;4921470;28;20058;-65
2023/11/19 13:08:49;;;;;;;22.67;2.80;;;;;;;;;;4982285;28;20060;-56
2023/11/19 13:11:31;;;;;;;16.05;2.38;;;;;;;;;;4959939;28;20106;-63
2023/11/19 13:13:59;;;;;;;28.45;3.95;;;;;;;;;;4942499;28;20054;-59
2023/11/19 13:16:27;;;;;;;22.27;2.55;;;;;;;;;;4965083;28;20050;-60
2023/11/19 13:18:54;;;;;;;23.70;2.88;;;;;;;;;;4965293;28;20121;-58
2023/11/19 13:21:21;;;;;;;18.95;2.10;;;;;;;;;;4984323;28;20058;-59
2023/11/19 13:23:47;;;;;;;17.42;2.47;;;;;;;;;;4983091;28;20062;-57
2023/11/19 13:26:14;;;;;;;15.55;2.35;;;;;;;;;;4961383;28;20058;-55
2023/11/19 13:28:41;;;;;;;15.40;2.13;;;;;;;;;;4964077;28;20054;-59
2023/11/19 13:31:08;;;;;;;14.90;2.30;;;;;;;;;;4962569;28;20145;-61
2023/11/19 13:33:36;;;;;;;36.05;3.95;;;;;;;;;;4981047;28;20156;-60
2023/11/19 13:36:05;;;;;;;22.92;2.17;;;;;;;;;;4934752;28;20148;-61
2023/11/19 13:38:33;;;;;;;27.23;3.05;;;;;;;;;;4958012;28;20113;-59
2023/11/19 13:41:00;;;;;;;18.52;2.45;;;;;;;;;;4962104;28;20058;-60
2023/11/19 13:43:27;;;;;;;17.27;2.83;;;;;;;;;;4959285;28;20086;-59
2023/11/19 13:45:54;;;;;;;26.27;3.42;;;;;;;;;;4955285;28;20073;-62
2023/11/19 13:48:21;;;;;;;16.02;2.20;;;;;;;;;;4956464;28;20062;-63
2023/11/19 13:50:49;;;;;;;23.40;3.45;;;;;;;;;;4961871;28;20066;-61
2023/11/19 13:53:16;;;;;;;20.13;2.30;;;;;;;;;;4958106;28;20050;-59
2023/11/19 13:55:43;;;;;;;19.27;2.15;;;;;;;;;;4953289;28;20046;-58
2023/11/19 13:58:10;;;;;;;14.10;2.25;;;;;;;;;;4956322;28;20149;-59
2023/11/19 14:00:36;;;;;;;11.40;2.08;;;;;;;;;;4961818;28;20058;-56
2023/11/19 14:03:03;;;;;;;21.92;2.40;;;;;;;;;;4961842;28;20139;-57
2023/11/19 14:05:30;;;;;;;13.98;2.00;;;;;;;;;;4947750;28;20063;-57
2023/11/19 14:08:01;;;;;;;16.30;4.18;;;;;;;;;;4956633;28;20057;-59
2023/11/19 14:10:28;;;;;;;19.48;3.30;;;;;;;;;;4960394;28;20066;-54
2023/11/19 14:12:55;;;;;;;24.25;2.30;;;;;;;;;;4970306;28;20054;-60
2023/11/19 14:15:22;;;;;;;19.42;2.55;;;;;;;;;;4945615;28;20059;-56
2023/11/19 14:17:52;;;;;;;14.57;2.35;;;;;;;;;;4960128;28;20170;-62
2023/11/19 14:20:21;;;;;;;20.40;2.50;;;;;;;;;;4956326;28;20152;-54
2023/11/19 14:22:48;;;;;;;9.82;1.80;;;;;;;;;;4957075;28;20109;-56
2023/11/19 14:25:17;;;;;;;29.15;2.38;;;;;;;;;;4910697;28;21388;-58
2023/11/19 14:27:45;;;;;;;20.85;2.55;;;;;;;;;;4953010;28;20053;-61
2023/11/19 14:30:14;;;;;;;9.60;1.45;;;;;;;;;;4944873;28;20065;-59
2023/11/19 14:32:43;;;;;;;16.65;2.15;;;;;;;;;;4977913;28;20062;-60
2023/11/19 14:35:10;;;;;;;18.20;2.30;;;;;;;;;;4970656;28;20050;-62
2023/11/19 14:37:37;;;;;;;28.60;3.20;;;;;;;;;;4960632;28;20053;-60
2023/11/19 14:40:05;;;;;;;18.63;2.45;;;;;;;;;;4954128;28;20059;-62
2023/11/19 14:42:33;;;;;;;26.02;4.90;;;;;;;;;;4965160;28;20051;-59
2023/11/19 14:45:00;;;;;;;14.23;2.58;;;;;;;;;;4916237;28;20057;-61
2023/11/19 14:47:27;;;;;;;15.98;2.50;;;;;;;;;;4950436;28;20063;-62
2023/11/19 14:49:54;;;;;;;16.58;2.35;;;;;;;;;;4953970;28;20133;-61